sensor_id;sensor_type;location;lat;lon;timestamp;temperature;humidity
5520;DHT22;2782;52.362;10.012;2022-09-21T00:01:30;19.60;91.60
5520;DHT22;2782;52.362;10.012;2022-09-21T00:08:13;19.60;91.60
5520;DHT22;2782;52.362;10.012;2022-09-21T00:14:56;19.60;91.50
5520;DHT22;2782;52.362;10.012;2022-09-21T00:21:38;19.60;91.70
5520;DHT22;2782;52.362;10.012;2022-09-21T00:28:20;19.60;91.60
5520;DHT22;2782;52.362;10.012;2022-09-21T00:35:04;19.60;91.60
5520;DHT22;2782;52.362;10.012;2022-09-21T00:41:47;19.50;91.50
5520;DHT22;2782;52.362;10.012;2022-09-21T00:48:32;19.50;91.40
5520;DHT22;2782;52.362;10.012;2022-09-21T00:55:18;19.50;91.50
5520;DHT22;2782;52.362;10.012;2022-09-21T01:02:01;19.50;91.60
5520;DHT22;2782;52.362;10.012;2022-09-21T01:08:43;19.50;91.60
5520;DHT22;2782;52.362;10.012;2022-09-21T01:15:34;19.40;91.50
5520;DHT22;2782;52.362;10.012;2022-09-21T01:22:24;19.40;91.50
5520;DHT22;2782;52.362;10.012;2022-09-21T01:29:15;19.40;91.50
5520;DHT22;2782;52.362;10.012;2022-09-21T01:36:00;19.40;91.50
5520;DHT22;2782;52.362;10.012;2022-09-21T01:42:45;19.40;91.50
5520;DHT22;2782;52.362;10.012;2022-09-21T01:49:33;19.40;91.50
5520;DHT22;2782;52.362;10.012;2022-09-21T01:56:20;19.40;91.40
5520;DHT22;2782;52.362;10.012;2022-09-21T02:03:06;19.40;91.40
5520;DHT22;2782;52.362;10.012;2022-09-21T02:09:51;19.40;91.40
5520;DHT22;2782;52.362;10.012;2022-09-21T02:16:38;19.40;91.40
5520;DHT22;2782;52.362;10.012;2022-09-21T02:23:27;19.30;91.30
5520;DHT22;2782;52.362;10.012;2022-09-21T02:30:15;19.40;91.40
5520;DHT22;2782;52.362;10.012;2022-09-21T02:37:02;19.30;91.20
5520;DHT22;2782;52.362;10.012;2022-09-21T02:43:49;19.30;91.20
5520;DHT22;2782;52.362;10.012;2022-09-21T02:50:37;19.30;91.20
5520;DHT22;2782;52.362;10.012;2022-09-21T02:57:21;19.30;91.20
5520;DHT22;2782;52.362;10.012;2022-09-21T03:04:03;19.30;91.20
5520;DHT22;2782;52.362;10.012;2022-09-21T03:10:46;19.30;91.10
5520;DHT22;2782;52.362;10.012;2022-09-21T03:17:30;19.30;91.20
5520;DHT22;2782;52.362;10.012;2022-09-21T03:24:11;19.20;91.10
5520;DHT22;2782;52.362;10.012;2022-09-21T03:30:54;19.20;91.00
5520;DHT22;2782;52.362;10.012;2022-09-21T03:37:37;19.20;91.10
5520;DHT22;2782;52.362;10.012;2022-09-21T03:44:19;19.20;91.00
5520;DHT22;2782;52.362;10.012;2022-09-21T03:51:02;19.20;90.70
5520;DHT22;2782;52.362;10.012;2022-09-21T03:57:44;19.20;90.80
5520;DHT22;2782;52.362;10.012;2022-09-21T04:04:26;19.20;90.80
5520;DHT22;2782;52.362;10.012;2022-09-21T04:11:13;19.30;90.80
5520;DHT22;2782;52.362;10.012;2022-09-21T04:17:55;19.30;90.80
5520;DHT22;2782;52.362;10.012;2022-09-21T04:24:37;19.30;90.80
5520;DHT22;2782;52.362;10.012;2022-09-21T04:31:22;19.30;90.70
5520;DHT22;2782;52.362;10.012;2022-09-21T04:38:04;19.30;90.70
5520;DHT22;2782;52.362;10.012;2022-09-21T04:44:48;19.40;90.70
5520;DHT22;2782;52.362;10.012;2022-09-21T04:51:32;19.40;90.80
5520;DHT22;2782;52.362;10.012;2022-09-21T04:58:13;19.40;91.90
5520;DHT22;2782;52.362;10.012;2022-09-21T05:04:55;19.50;92.90
5520;DHT22;2782;52.362;10.012;2022-09-21T05:11:38;19.50;94.20
5520;DHT22;2782;52.362;10.012;2022-09-21T05:18:19;19.60;94.80
5520;DHT22;2782;52.362;10.012;2022-09-21T05:25:01;19.60;95.50
5520;DHT22;2782;52.362;10.012;2022-09-21T05:31:46;19.70;96.60
5520;DHT22;2782;52.362;10.012;2022-09-21T05:38:29;19.70;96.70
5520;DHT22;2782;52.362;10.012;2022-09-21T05:45:15;19.70;96.80
5520;DHT22;2782;52.362;10.012;2022-09-21T05:52:04;19.80;95.90
5520;DHT22;2782;52.362;10.012;2022-09-21T05:58:53;19.70;87.00
5520;DHT22;2782;52.362;10.012;2022-09-21T06:05:39;19.40;79.70
5520;DHT22;2782;52.362;10.012;2022-09-21T06:12:22;19.20;78.00
5520;DHT22;2782;52.362;10.012;2022-09-21T06:19:03;19.20;77.90
5520;DHT22;2782;52.362;10.012;2022-09-21T06:25:50;19.30;80.10
5520;DHT22;2782;52.362;10.012;2022-09-21T06:32:33;19.40;81.10
5520;DHT22;2782;52.362;10.012;2022-09-21T06:39:14;19.40;81.50
5520;DHT22;2782;52.362;10.012;2022-09-21T06:45:57;19.50;82.20
5520;DHT22;2782;52.362;10.012;2022-09-21T06:52:40;19.50;83.30
5520;DHT22;2782;52.362;10.012;2022-09-21T06:59:22;19.60;83.20
5520;DHT22;2782;52.362;10.012;2022-09-21T07:06:05;19.60;83.50
5520;DHT22;2782;52.362;10.012;2022-09-21T07:12:49;19.60;83.80
5520;DHT22;2782;52.362;10.012;2022-09-21T07:19:31;19.70;84.20
5520;DHT22;2782;52.362;10.012;2022-09-21T07:26:13;19.60;84.30
5520;DHT22;2782;52.362;10.012;2022-09-21T07:32:56;19.60;84.60
5520;DHT22;2782;52.362;10.012;2022-09-21T07:39:38;19.70;84.90
5520;DHT22;2782;52.362;10.012;2022-09-21T07:46:21;19.70;85.10
5520;DHT22;2782;52.362;10.012;2022-09-21T07:53:05;19.70;85.20
5520;DHT22;2782;52.362;10.012;2022-09-21T07:59:46;19.70;85.50
5520;DHT22;2782;52.362;10.012;2022-09-21T08:06:29;19.70;85.60
5520;DHT22;2782;52.362;10.012;2022-09-21T08:13:13;19.70;85.70
5520;DHT22;2782;52.362;10.012;2022-09-21T08:19:55;19.60;85.80
5520;DHT22;2782;52.362;10.012;2022-09-21T08:26:36;19.60;85.90
5520;DHT22;2782;52.362;10.012;2022-09-21T08:33:19;19.60;86.00
5520;DHT22;2782;52.362;10.012;2022-09-21T08:40:01;19.60;86.10
5520;DHT22;2782;52.362;10.012;2022-09-21T08:46:43;19.50;86.10
5520;DHT22;2782;52.362;10.012;2022-09-21T08:53:31;19.50;86.20
5520;DHT22;2782;52.362;10.012;2022-09-21T09:00:16;19.50;86.30
5520;DHT22;2782;52.362;10.012;2022-09-21T09:07:08;19.50;86.60
5520;DHT22;2782;52.362;10.012;2022-09-21T09:14:13;19.50;86.80
5520;DHT22;2782;52.362;10.012;2022-09-21T09:21:02;19.50;86.90
5520;DHT22;2782;52.362;10.012;2022-09-21T09:27:46;19.40;86.80
5520;DHT22;2782;52.362;10.012;2022-09-21T09:34:31;19.40;86.90
5520;DHT22;2782;52.362;10.012;2022-09-21T09:48:34;19.40;87.20
5520;DHT22;2782;52.362;10.012;2022-09-21T09:55:21;19.40;87.30
5520;DHT22;2782;52.362;10.012;2022-09-21T10:02:06;19.40;87.40
5520;DHT22;2782;52.362;10.012;2022-09-21T10:08:48;19.30;87.60
5520;DHT22;2782;52.362;10.012;2022-09-21T10:15:32;19.30;87.80
5520;DHT22;2782;52.362;10.012;2022-09-21T10:22:15;19.30;87.90
5520;DHT22;2782;52.362;10.012;2022-09-21T10:28:59;19.30;88.00
5520;DHT22;2782;52.362;10.012;2022-09-21T10:35:49;19.30;88.10
5520;DHT22;2782;52.362;10.012;2022-09-21T10:42:35;19.30;88.10
5520;DHT22;2782;52.362;10.012;2022-09-21T10:49:20;19.30;88.30
5520;DHT22;2782;52.362;10.012;2022-09-21T10:56:06;19.30;88.30
5520;DHT22;2782;52.362;10.012;2022-09-21T11:02:48;19.30;88.50
5520;DHT22;2782;52.362;10.012;2022-09-21T11:09:34;19.30;87.80
5520;DHT22;2782;52.362;10.012;2022-09-21T11:16:23;19.30;87.60
5520;DHT22;2782;52.362;10.012;2022-09-21T11:23:15;19.30;87.50
5520;DHT22;2782;52.362;10.012;2022-09-21T11:30:05;19.30;87.50
5520;DHT22;2782;52.362;10.012;2022-09-21T11:36:55;19.30;87.60
5520;DHT22;2782;52.362;10.012;2022-09-21T11:43:50;19.30;87.80
5520;DHT22;2782;52.362;10.012;2022-09-21T11:50:55;19.30;87.50
5520;DHT22;2782;52.362;10.012;2022-09-21T11:57:43;19.30;87.60
5520;DHT22;2782;52.362;10.012;2022-09-21T12:04:41;19.30;87.70
5520;DHT22;2782;52.362;10.012;2022-09-21T12:11:34;19.30;87.70
5520;DHT22;2782;52.362;10.012;2022-09-21T12:18:23;19.20;87.40
5520;DHT22;2782;52.362;10.012;2022-09-21T12:25:13;19.30;87.40
5520;DHT22;2782;52.362;10.012;2022-09-21T12:32:00;19.20;87.30
5520;DHT22;2782;52.362;10.012;2022-09-21T12:38:49;19.20;87.30
5520;DHT22;2782;52.362;10.012;2022-09-21T12:45:36;19.20;87.30
5520;DHT22;2782;52.362;10.012;2022-09-21T12:52:22;19.20;87.40
5520;DHT22;2782;52.362;10.012;2022-09-21T12:59:15;19.20;87.40
5520;DHT22;2782;52.362;10.012;2022-09-21T13:13:26;19.20;87.30
5520;DHT22;2782;52.362;10.012;2022-09-21T13:20:17;19.10;87.20
5520;DHT22;2782;52.362;10.012;2022-09-21T13:26:59;19.20;87.40
5520;DHT22;2782;52.362;10.012;2022-09-21T13:34:06;19.10;87.30
5520;DHT22;2782;52.362;10.012;2022-09-21T13:40:59;19.10;87.10
5520;DHT22;2782;52.362;10.012;2022-09-21T13:47:42;19.10;86.70
5520;DHT22;2782;52.362;10.012;2022-09-21T13:54:27;19.10;86.70
5520;DHT22;2782;52.362;10.012;2022-09-21T14:01:17;19.10;86.80
5520;DHT22;2782;52.362;10.012;2022-09-21T14:08:01;19.10;86.80
5520;DHT22;2782;52.362;10.012;2022-09-21T14:15:07;19.10;86.70
5520;DHT22;2782;52.362;10.012;2022-09-21T14:29:19;19.10;87.10
5520;DHT22;2782;52.362;10.012;2022-09-21T14:36:06;19.10;87.00
5520;DHT22;2782;52.362;10.012;2022-09-21T14:42:49;19.10;87.00
5520;DHT22;2782;52.362;10.012;2022-09-21T14:49:39;19.10;86.80
5520;DHT22;2782;52.362;10.012;2022-09-21T14:56:41;19.10;86.80
5520;DHT22;2782;52.362;10.012;2022-09-21T15:03:56;19.10;86.70
5520;DHT22;2782;52.362;10.012;2022-09-21T15:10:52;19.10;86.70
5520;DHT22;2782;52.362;10.012;2022-09-21T15:17:50;19.10;86.60
5520;DHT22;2782;52.362;10.012;2022-09-21T15:24:32;19.20;87.00
5520;DHT22;2782;52.362;10.012;2022-09-21T15:31:16;19.20;86.90
5520;DHT22;2782;52.362;10.012;2022-09-21T15:37:59;19.20;86.80
5520;DHT22;2782;52.362;10.012;2022-09-21T15:44:41;19.20;86.60
5520;DHT22;2782;52.362;10.012;2022-09-21T15:51:28;19.20;86.70
5520;DHT22;2782;52.362;10.012;2022-09-21T15:58:20;19.20;86.60
5520;DHT22;2782;52.362;10.012;2022-09-21T16:05:04;19.20;86.60
5520;DHT22;2782;52.362;10.012;2022-09-21T16:11:50;19.20;86.60
5520;DHT22;2782;52.362;10.012;2022-09-21T16:18:40;19.20;86.80
5520;DHT22;2782;52.362;10.012;2022-09-21T16:25:27;19.10;86.80
5520;DHT22;2782;52.362;10.012;2022-09-21T16:32:29;19.20;87.10
5520;DHT22;2782;52.362;10.012;2022-09-21T16:39:13;19.10;87.00
5520;DHT22;2782;52.362;10.012;2022-09-21T16:45:55;19.10;87.00
5520;DHT22;2782;52.362;10.012;2022-09-21T16:52:38;19.10;87.10
5520;DHT22;2782;52.362;10.012;2022-09-21T16:59:20;19.10;87.10
5520;DHT22;2782;52.362;10.012;2022-09-21T17:06:02;19.30;86.20
5520;DHT22;2782;52.362;10.012;2022-09-21T17:12:46;19.30;85.50
5520;DHT22;2782;52.362;10.012;2022-09-21T17:19:30;19.30;86.20
5520;DHT22;2782;52.362;10.012;2022-09-21T17:26:13;19.20;85.30
5520;DHT22;2782;52.362;10.012;2022-09-21T17:32:58;19.20;87.60
5520;DHT22;2782;52.362;10.012;2022-09-21T17:39:40;19.20;90.70
5520;DHT22;2782;52.362;10.012;2022-09-21T17:46:29;19.30;90.90
5520;DHT22;2782;52.362;10.012;2022-09-21T17:53:12;19.30;90.70
5520;DHT22;2782;52.362;10.012;2022-09-21T18:00:17;19.40;91.10
5520;DHT22;2782;52.362;10.012;2022-09-21T18:07:00;19.40;91.40
5520;DHT22;2782;52.362;10.012;2022-09-21T18:13:52;19.50;91.70
5520;DHT22;2782;52.362;10.012;2022-09-21T18:20:40;19.50;91.80
5520;DHT22;2782;52.362;10.012;2022-09-21T18:27:27;19.50;92.20
5520;DHT22;2782;52.362;10.012;2022-09-21T18:34:22;19.60;92.50
5520;DHT22;2782;52.362;10.012;2022-09-21T18:41:13;19.70;92.50
5520;DHT22;2782;52.362;10.012;2022-09-21T18:48:10;19.60;89.40
5520;DHT22;2782;52.362;10.012;2022-09-21T18:54:57;19.60;90.30
5520;DHT22;2782;52.362;10.012;2022-09-21T19:01:40;19.50;90.10
5520;DHT22;2782;52.362;10.012;2022-09-21T19:08:27;19.50;86.30
5520;DHT22;2782;52.362;10.012;2022-09-21T19:15:18;19.50;88.30
5520;DHT22;2782;52.362;10.012;2022-09-21T19:22:07;19.50;87.10
5520;DHT22;2782;52.362;10.012;2022-09-21T19:29:02;19.40;86.30
5520;DHT22;2782;52.362;10.012;2022-09-21T19:35:51;19.40;88.40
5520;DHT22;2782;52.362;10.012;2022-09-21T19:42:38;19.50;89.60
5520;DHT22;2782;52.362;10.012;2022-09-21T19:49:31;19.50;90.00
5520;DHT22;2782;52.362;10.012;2022-09-21T19:56:17;19.60;90.20
5520;DHT22;2782;52.362;10.012;2022-09-21T20:03:21;19.60;90.40
5520;DHT22;2782;52.362;10.012;2022-09-21T20:10:24;19.70;90.70
5520;DHT22;2782;52.362;10.012;2022-09-21T20:17:13;19.70;90.90
5520;DHT22;2782;52.362;10.012;2022-09-21T20:23:59;19.70;91.00
5520;DHT22;2782;52.362;10.012;2022-09-21T20:30:41;19.70;91.40
5520;DHT22;2782;52.362;10.012;2022-09-21T20:37:25;19.80;92.00
5520;DHT22;2782;52.362;10.012;2022-09-21T20:44:11;19.80;92.00
5520;DHT22;2782;52.362;10.012;2022-09-21T20:50:53;19.80;91.50
5520;DHT22;2782;52.362;10.012;2022-09-21T20:57:38;19.90;91.80
5520;DHT22;2782;52.362;10.012;2022-09-21T21:04:19;19.80;87.20
5520;DHT22;2782;52.362;10.012;2022-09-21T21:11:02;19.70;87.20
5520;DHT22;2782;52.362;10.012;2022-09-21T21:17:46;19.70;89.00
5520;DHT22;2782;52.362;10.012;2022-09-21T21:24:28;19.60;90.00
5520;DHT22;2782;52.362;10.012;2022-09-21T21:31:22;19.70;90.40
5520;DHT22;2782;52.362;10.012;2022-09-21T21:38:05;19.70;90.00
5520;DHT22;2782;52.362;10.012;2022-09-21T21:44:47;19.70;90.10
5520;DHT22;2782;52.362;10.012;2022-09-21T21:51:30;19.70;90.00
5520;DHT22;2782;52.362;10.012;2022-09-21T21:58:13;19.60;90.00
5520;DHT22;2782;52.362;10.012;2022-09-21T22:04:54;19.60;89.90
5520;DHT22;2782;52.362;10.012;2022-09-21T22:11:36;19.60;90.00
5520;DHT22;2782;52.362;10.012;2022-09-21T22:18:19;19.60;89.80
5520;DHT22;2782;52.362;10.012;2022-09-21T22:25:01;19.50;89.70
5520;DHT22;2782;52.362;10.012;2022-09-21T22:31:44;19.50;89.50
5520;DHT22;2782;52.362;10.012;2022-09-21T22:38:28;19.50;89.50
5520;DHT22;2782;52.362;10.012;2022-09-21T22:45:11;19.50;89.50
5520;DHT22;2782;52.362;10.012;2022-09-21T22:51:52;19.40;89.40
5520;DHT22;2782;52.362;10.012;2022-09-21T22:58:37;19.40;89.40
5520;DHT22;2782;52.362;10.012;2022-09-21T23:05:19;19.40;89.50
5520;DHT22;2782;52.362;10.012;2022-09-21T23:12:01;19.30;87.80
5520;DHT22;2782;52.362;10.012;2022-09-21T23:18:46;19.30;89.50
5520;DHT22;2782;52.362;10.012;2022-09-21T23:25:27;19.30;89.80
5520;DHT22;2782;52.362;10.012;2022-09-21T23:32:09;19.30;90.00
5520;DHT22;2782;52.362;10.012;2022-09-21T23:38:52;19.30;89.90
5520;DHT22;2782;52.362;10.012;2022-09-21T23:45:34;19.30;90.30
5520;DHT22;2782;52.362;10.012;2022-09-21T23:52:16;19.20;90.00
5520;DHT22;2782;52.362;10.012;2022-09-21T23:58:59;19.20;90.00
